Time;durP1;ratioP1;P1;durP2;ratioP2;P2;SDS_P1;SDS_P2;PMS_P1;PMS_P2;Temp;Humidity;BMP_temperature;BMP_pressure;BME280_temperature;BME280_humidity;BME280_pressure;Samples;Min_cycle;Max_cycle;Signal;HPM_P1;HPM_P2
2021/07/02 00:00:58;;;;;;;;;;;;;;;23.45;63.77;99083.00;3493431;27;2052782;-75
2021/07/02 00:02:51;;;;;;;;;;;;;;;23.45;63.76;99085.72;3481732;27;2383844;-76
2021/07/02 00:04:44;;;;;;;;;;;;;;;23.44;63.94;99084.91;3493519;27;2046062;-77
2021/07/02 00:06:37;;;;;;;;;;;;;;;23.44;63.86;99089.53;3486126;27;2064757;-74
2021/07/02 00:08:31;;;;;;;;;;;;;;;23.43;63.86;99086.00;3492995;27;2064803;-75
2021/07/02 00:10:25;;;;;;;;;;;;;;;23.44;63.78;99078.66;3522542;27;19959;-75
2021/07/02 00:12:18;;;;;;;;;;;;;;;23.44;63.90;99084.91;3493382;27;2041075;-76
2021/07/02 00:14:11;;;;;;;;;;;;;;;23.44;63.70;99084.09;3493485;27;2043185;-75
2021/07/02 00:16:04;;;;;;;;;;;;;;;23.43;63.94;99079.75;3394696;27;4756373;-75
2021/07/02 00:17:56;;;;;;;;;;;;;;;23.42;63.60;99076.25;3482208;27;2364823;-75
2021/07/02 00:19:51;;;;;;;;;;;;;;;23.41;63.71;99077.31;3522773;27;20384;-75
2021/07/02 00:21:46;;;;;;;;;;;;;;;23.41;63.76;99074.59;3522835;27;19963;-75
2021/07/02 00:23:41;;;;;;;;;;;;;;;23.39;63.93;99065.13;3523197;27;19978;-75
2021/07/02 00:25:38;;;;;;;;;;;;;;;23.38;63.84;99068.97;3492667;27;2053486;-75
2021/07/02 00:27:33;;;;;;;;;;;;;;;23.37;63.79;99068.16;3509291;27;20019;-76
2021/07/02 00:29:26;;;;;;;;;;;;;;;23.36;63.66;99061.06;3491544;27;2103418;-76
2021/07/02 00:31:19;;;;;;;;;;;;;;;23.36;63.82;99054.84;3493649;27;2055410;-74
2021/07/02 00:33:12;;;;;;;;;;;;;;;23.35;63.64;99051.31;3482985;27;2366919;-76
2021/07/02 00:35:04;;;;;;;;;;;;;;;23.35;63.66;99058.66;3494036;27;2056437;-75
2021/07/02 00:36:58;;;;;;;;;;;;;;;23.33;63.68;99063.59;3509770;27;19967;-75
2021/07/02 00:38:53;;;;;;;;;;;;;;;23.32;63.74;99059.28;3509745;27;19974;-76
2021/07/02 00:40:48;;;;;;;;;;;;;;;23.28;63.74;99059.88;3484470;28;19971;-77
2021/07/02 00:42:43;;;;;;;;;;;;;;;23.27;63.74;99054.72;3523082;27;19956;-74
2021/07/02 00:44:43;;;;;;;;;;;;;;;23.27;63.78;99054.72;3482863;27;2046716;-74
2021/07/02 00:46:38;;;;;;;;;;;;;;;23.26;63.75;99055.81;3495132;28;19952;-75
2021/07/02 00:48:33;;;;;;;;;;;;;;;23.26;63.64;99061.25;3508975;27;19963;-74
2021/07/02 00:50:32;;;;;;;;;;;;;;;23.25;63.47;99054.19;3523366;27;19955;-76
2021/07/02 00:52:25;;;;;;;;;;;;;;;23.25;63.45;99054.19;3493540;27;2062311;-74
2021/07/02 00:54:19;;;;;;;;;;;;;;;23.24;63.46;99044.41;3495023;27;2044721;-74
2021/07/02 00:56:15;;;;;;;;;;;;;;;23.23;63.54;99038.19;3509184;27;20346;-75
2021/07/02 00:58:10;;;;;;;;;;;;;;;23.23;63.71;99040.06;3509429;27;19954;-74
2021/07/02 01:00:08;;;;;;;;;;;;;;;23.23;63.60;99040.06;3508953;27;19970;-74
2021/07/02 01:02:02;;;;;;;;;;;;;;;23.22;63.59;99043.91;3493740;27;2047930;-74
2021/07/02 01:03:55;;;;;;;;;;;;;;;23.20;63.62;99041.47;3493196;27;2052167;-76
2021/07/02 01:05:52;;;;;;;;;;;;;;;23.18;63.59;99037.41;3492532;27;2075452;-75
2021/07/02 01:07:47;;;;;;;;;;;;;;;23.15;63.74;99051.59;3494504;27;2080204;-74
2021/07/02 01:09:41;;;;;;;;;;;;;;;23.16;63.63;99050.53;3494392;27;2043009;-75
2021/07/02 01:11:37;;;;;;;;;;;;;;;23.15;63.55;99044.25;3508638;27;19955;-74
2021/07/02 01:13:29;;;;;;;;;;;;;;;23.17;63.59;99046.69;3493792;27;2055928;-74
2021/07/02 01:15:23;;;;;;;;;;;;;;;23.19;63.66;99047.22;3467547;27;2055531;-74
2021/07/02 01:17:19;;;;;;;;;;;;;;;23.19;63.64;99049.94;3481677;27;2070952;-75
2021/07/02 01:19:13;;;;;;;;;;;;;;;23.19;63.68;99047.22;3495112;28;19960;-75
2021/07/02 01:21:10;;;;;;;;;;;;;;;23.20;63.55;99051.53;3551802;27;19924;-74
2021/07/02 01:23:03;;;;;;;;;;;;;;;23.19;63.58;99061.59;3494831;27;2075664;-75
2021/07/02 01:24:57;;;;;;;;;;;;;;;23.20;63.69;99051.53;3492264;27;2081913;-74
2021/07/02 01:26:50;;;;;;;;;;;;;;;23.20;63.37;99059.69;3488404;27;2040500;-75
2021/07/02 01:28:46;;;;;;;;;;;;;;;23.20;63.45;99057.78;3494565;27;2059411;-74
2021/07/02 01:30:41;;;;;;;;;;;;;;;23.21;63.71;99053.97;3504372;27;2048667;-77
2021/07/02 01:32:36;;;;;;;;;;;;;;;23.22;63.50;99049.34;3511566;27;2051691;-74
2021/07/02 01:34:31;;;;;;;;;;;;;;;23.22;63.53;99061.03;3532937;27;19920;-75
2021/07/02 01:36:25;;;;;;;;;;;;;;;23.22;63.64;99063.75;3491388;27;2051994;-75
2021/07/02 01:38:21;;;;;;;;;;;;;;;23.23;63.60;99064.53;3479506;27;2048390;-76
2021/07/02 01:40:18;;;;;;;;;;;;;;;23.22;63.56;99071.09;3521259;27;19927;-73
2021/07/02 01:42:11;;;;;;;;;;;;;;;23.22;63.56;99057.50;3499666;27;2111313;-75
2021/07/02 01:44:06;;;;;;;;;;;;;;;23.21;63.49;99056.69;3514854;27;19917;-73
2021/07/02 01:46:04;;;;;;;;;;;;;;;23.22;63.62;99057.50;3509555;27;19971;-74
2021/07/02 01:47:57;;;;;;;;;;;;;;;23.20;63.59;99059.69;3465403;27;2056621;-74
2021/07/02 01:49:55;;;;;;;;;;;;;;;23.19;63.71;99055.38;3445154;27;3381489;-74
2021/07/02 01:51:54;;;;;;;;;;;;;;;23.19;63.57;99063.53;3522813;27;19955;-75
2021/07/02 01:53:47;;;;;;;;;;;;;;;23.17;63.49;99058.38;3504680;27;2047099;-75
2021/07/02 01:55:41;;;;;;;;;;;;;;;23.19;63.40;99060.81;3522979;27;19963;-74
2021/07/02 01:57:34;;;;;;;;;;;;;;;23.19;63.57;99060.81;3480830;27;2056539;-76
2021/07/02 01:59:32;;;;;;;;;;;;;;;23.19;63.58;99063.53;3492599;27;2065878;-73
2021/07/02 02:01:27;;;;;;;;;;;;;;;23.20;63.56;99062.41;3483511;27;2336527;-75
2021/07/02 02:03:22;;;;;;;;;;;;;;;23.19;63.59;99066.25;3493438;27;2049805;-75
2021/07/02 02:05:19;;;;;;;;;;;;;;;23.20;63.56;99062.41;3508436;27;19956;-74
2021/07/02 02:07:11;;;;;;;;;;;;;;;23.19;63.61;99058.09;3484058;27;2041392;-75
2021/07/02 02:09:09;;;;;;;;;;;;;;;23.18;63.74;99053.72;3508431;27;19963;-75
2021/07/02 02:11:02;;;;;;;;;;;;;;;23.17;63.56;99049.41;3493764;27;2054197;-75
2021/07/02 02:13:03;;;;;;;;;;;;;;;23.14;63.60;99047.28;3522725;27;19967;-74
2021/07/02 02:14:57;;;;;;;;;;;;;;;23.14;63.85;99048.09;3492812;27;2069512;-75
2021/07/02 02:16:54;;;;;;;;;;;;;;;23.13;63.49;99049.19;3523043;27;19963;-75
2021/07/02 02:19:16;;;;;;;;;;;;;;;23.10;63.65;99044.31;3492901;27;2067163;-75
2021/07/02 02:21:08;;;;;;;;;;;;;;;23.11;63.76;99058.75;3492916;27;2069115;-75
2021/07/02 02:23:03;;;;;;;;;;;;;;;23.10;63.60;99048.97;3522710;27;20398;-75
2021/07/02 02:25:26;;;;;;;;;;;;;;;23.10;63.80;99048.97;3491473;27;2111991;-73
2021/07/02 02:27:18;;;;;;;;;;;;;;;23.11;63.67;99047.88;3468354;27;2058981;-75
2021/07/02 02:29:09;;;;;;;;;;;;;;;23.13;63.73;99051.09;3491757;27;2098711;-76
2021/07/02 02:31:05;;;;;;;;;;;;;;;23.14;63.71;99047.28;3509048;27;19956;-76
2021/07/02 02:33:11;;;;;;;;;;;;;;;23.14;63.62;99052.72;3491079;27;2129554;-77
2021/07/02 02:35:08;;;;;;;;;;;;;;;23.12;63.72;99055.72;3522592;27;19951;-76
2021/07/02 02:37:03;;;;;;;;;;;;;;;23.11;63.74;99059.56;3523198;27;19967;-74
2021/07/02 02:38:57;;;;;;;;;;;;;;;23.12;63.82;99052.19;3493486;27;2052962;-74
2021/07/02 02:40:51;;;;;;;;;;;;;;;23.12;63.77;99052.19;3522557;27;19959;-75
2021/07/02 02:42:44;;;;;;;;;;;;;;;23.13;63.77;99051.91;3491178;27;2127300;-75
2021/07/02 02:44:35;;;;;;;;;;;;;;;23.14;63.71;99044.56;3493591;27;2060488;-72
2021/07/02 02:46:28;;;;;;;;;;;;;;;23.15;63.66;99048.88;3489853;27;2083129;-75
2021/07/02 02:48:21;;;;;;;;;;;;;;;23.16;63.68;99053.25;3491678;27;2096827;-74
2021/07/02 02:50:13;;;;;;;;;;;;;;;23.17;63.47;99052.94;3492997;27;2069620;-75
2021/07/02 02:52:06;;;;;;;;;;;;;;;23.17;63.68;99054.84;3491809;27;2078766;-74
2021/07/02 02:53:58;;;;;;;;;;;;;;;23.18;63.58;99056.44;3488517;27;2104181;-74
2021/07/02 02:55:53;;;;;;;;;;;;;;;23.18;63.59;99048.28;3464834;27;2062028;-75
2021/07/02 02:57:47;;;;;;;;;;;;;;;23.19;63.45;99052.66;3479297;27;2074750;-74
2021/07/02 02:59:38;;;;;;;;;;;;;;;23.19;63.74;99045.28;3493195;27;2068730;-74
2021/07/02 03:01:32;;;;;;;;;;;;;;;23.20;63.67;99048.81;3490651;27;2122635;-76
2021/07/02 03:03:25;;;;;;;;;;;;;;;23.19;63.58;99049.94;3493008;27;2056245;-75
2021/07/02 03:05:17;;;;;;;;;;;;;;;23.18;63.40;99053.72;3492187;27;2084542;-77
2021/07/02 03:07:10;;;;;;;;;;;;;;;23.19;63.70;99055.38;3484854;27;2062858;-73
2021/07/02 03:09:06;;;;;;;;;;;;;;;23.20;63.54;99054.25;3494838;28;19960;-75
2021/07/02 03:10:59;;;;;;;;;;;;;;;23.21;63.58;99058.59;3492542;27;2067209;-73
2021/07/02 03:12:54;;;;;;;;;;;;;;;23.20;63.50;99052.34;3522214;27;19974;-74
2021/07/02 03:14:49;;;;;;;;;;;;;;;23.21;63.49;99053.16;3492413;27;2069638;-73
2021/07/02 03:16:43;;;;;;;;;;;;;;;23.20;63.54;99062.41;3491139;28;19967;-73
2021/07/02 03:18:35;;;;;;;;;;;;;;;23.20;63.47;99057.78;3490421;27;2133468;-75
2021/07/02 03:20:30;;;;;;;;;;;;;;;23.21;63.57;99058.59;3492961;27;2060414;-77
2021/07/02 03:22:24;;;;;;;;;;;;;;;23.22;63.53;99055.59;3492694;27;2062878;-75
2021/07/02 03:24:22;;;;;;;;;;;;;;;23.24;63.59;99058.81;3508566;27;20394;-77
2021/07/02 03:26:17;;;;;;;;;;;;;;;23.23;63.58;99057.22;3478836;27;2060282;-76
2021/07/02 03:28:10;;;;;;;;;;;;;;;23.23;63.42;99057.22;3490052;27;2143553;-77
2021/07/02 03:30:05;;;;;;;;;;;;;;;23.25;63.55;99059.63;3508978;27;19955;-75
2021/07/02 03:32:07;;;;;;;;;;;;;;;23.25;63.42;99060.44;3522986;27;19955;-73
2021/07/02 03:34:00;;;;;;;;;;;;;;;23.27;63.40;99066.38;3493293;27;2057128;-75
2021/07/02 03:35:52;;;;;;;;;;;;;;;23.28;63.67;99067.19;3492331;27;2069778;-74
2021/07/02 03:37:44;;;;;;;;;;;;;;;23.27;63.39;99058.22;3479487;27;2067777;-73
2021/07/02 03:39:36;;;;;;;;;;;;;;;23.29;63.37;99066.91;3492266;27;2078519;-74
2021/07/02 03:41:28;;;;;;;;;;;;;;;23.31;63.25;99061.16;3445974;27;3351131;-75
2021/07/02 03:43:21;;;;;;;;;;;;;;;23.34;63.24;99057.03;3492371;27;2083787;-75
2021/07/02 03:45:16;;;;;;;;;;;;;;;23.36;63.30;99055.63;3522904;27;19955;-78
2021/07/02 03:47:13;;;;;;;;;;;;;;;23.41;63.20;99057.47;3454415;27;2925074;-75
2021/07/02 03:49:07;;;;;;;;;;;;;;;23.45;63.05;99061.25;3490857;27;2126089;-75
2021/07/02 03:51:01;;;;;;;;;;;;;;;23.47;63.01;99057.13;3494422;27;2055722;-73
2021/07/02 03:52:53;;;;;;;;;;;;;;;23.50;62.85;99056.53;3493658;27;2056804;-75
2021/07/02 03:54:47;;;;;;;;;;;;;;;23.56;62.95;99064.59;3496041;28;19960;-74
2021/07/02 03:57:10;;;;;;;;;;;;;;;23.59;62.82;99064.00;3478711;27;2389723;-76
2021/07/02 03:58:54;;;;;;;;;;;;;;;23.62;62.49;99061.53;3508729;27;19964;-76
2021/07/02 04:00:47;;;;;;;;;;;;;;;23.64;62.68;99064.75;3492647;27;2053531;-77
2021/07/02 04:02:39;;;;;;;;;;;;;;;23.65;62.48;99057.41;3493889;27;2045388;-76
2021/07/02 04:04:35;;;;;;;;;;;;;;;23.64;62.49;99053.06;3478773;27;2059882;-76
2021/07/02 04:06:27;;;;;;;;;;;;;;;23.62;62.55;99063.41;3449447;27;2073219;-76
2021/07/02 04:08:20;;;;;;;;;;;;;;;23.62;62.60;99066.13;3457729;27;2048930;-73
2021/07/02 04:10:15;;;;;;;;;;;;;;;23.62;62.63;99061.53;3508549;27;19970;-74
2021/07/02 04:12:08;;;;;;;;;;;;;;;23.65;62.53;99060.13;3479081;27;2060053;-78
2021/07/02 04:14:01;;;;;;;;;;;;;;;23.67;62.59;99063.34;3488410;27;2183855;-75
2021/07/02 04:15:55;;;;;;;;;;;;;;;23.72;62.29;99058.69;3508871;27;19971;-76
2021/07/02 04:17:48;;;;;;;;;;;;;;;23.77;62.11;99065.94;3481376;27;2052026;-76
2021/07/02 04:19:40;;;;;;;;;;;;;;;23.81;62.30;99058.00;3490236;27;2136241;-78
2021/07/02 04:21:31;;;;;;;;;;;;;;;23.86;62.26;99063.34;3477771;27;2072174;-76
2021/07/02 04:23:23;;;;;;;;;;;;;;;23.89;61.93;99068.19;3479525;27;2109734;-76
2021/07/02 04:25:15;;;;;;;;;;;;;;;23.92;61.83;99068.41;3492466;27;2091497;-76
2021/07/02 04:27:09;;;;;;;;;;;;;;;23.95;61.87;99062.34;3474549;28;19956;-77
2021/07/02 04:29:02;;;;;;;;;;;;;;;23.97;61.72;99067.50;3492757;27;2103506;-77
2021/07/02 04:30:54;;;;;;;;;;;;;;;23.98;61.81;99071.03;3493412;27;2077114;-78
2021/07/02 04:32:47;;;;;;;;;;;;;;;24.00;61.92;99066.09;3493472;27;2076728;-77
2021/07/02 04:34:44;;;;;;;;;;;;;;;24.00;61.56;99064.19;3523320;27;20030;-76
2021/07/02 04:36:37;;;;;;;;;;;;;;;24.01;61.59;99073.16;3490747;27;2047278;-75
2021/07/02 04:38:29;;;;;;;;;;;;;;;24.04;61.83;99075.31;3492460;27;2080446;-76
2021/07/02 04:40:22;;;;;;;;;;;;;;;24.03;61.55;99074.47;3493054;27;2050057;-76
2021/07/02 04:42:14;;;;;;;;;;;;;;;24.05;61.78;99076.91;3477943;27;2479419;-76
2021/07/02 04:44:08;;;;;;;;;;;;;;;24.07;61.51;99080.16;3565721;27;20500;-77
2021/07/02 04:46:02;;;;;;;;;;;;;;;24.08;61.47;99077.09;3488333;27;2190441;-77
2021/07/02 04:47:54;;;;;;;;;;;;;;;24.10;61.69;99079.53;3477008;27;2147966;-76
2021/07/02 04:49:47;;;;;;;;;;;;;;;24.13;61.66;99078.94;3497063;27;2055941;-77
2021/07/02 04:51:42;;;;;;;;;;;;;;;24.15;61.54;99082.19;3491374;27;2155977;-78
2021/07/02 04:53:35;;;;;;;;;;;;;;;24.16;61.84;99079.16;3472271;27;2636862;-78
2021/07/02 04:55:30;;;;;;;;;;;;;;;24.17;61.79;99079.97;3523143;27;19974;-77
2021/07/02 04:57:23;;;;;;;;;;;;;;;24.19;61.74;99082.38;3481489;27;2143082;-77
2021/07/02 04:59:26;;;;;;;;;;;;;;;24.19;61.89;99080.47;3508051;27;19947;-75
2021/07/02 05:01:18;;;;;;;;;;;;;;;24.21;61.79;99080.97;3501912;27;2122552;-76
2021/07/02 05:03:11;;;;;;;;;;;;;;;24.23;61.67;99077.97;3493513;27;2068621;-76
2021/07/02 05:05:03;;;;;;;;;;;;;;;24.26;61.49;99080.06;3493312;27;2058883;-76
2021/07/02 05:06:59;;;;;;;;;;;;;;;24.29;61.50;99085.75;3508933;27;20405;-78
2021/07/02 05:08:53;;;;;;;;;;;;;;;24.31;61.49;99080.78;3537132;27;19963;-73
2021/07/02 05:10:47;;;;;;;;;;;;;;;24.35;61.30;99086.47;3493079;27;2057200;-74
2021/07/02 05:12:40;;;;;;;;;;;;;;;24.36;61.28;99088.88;3495116;27;2056581;-72
2021/07/02 05:14:33;;;;;;;;;;;;;;;24.39;61.43;99090.19;3478447;27;2070225;-73
2021/07/02 05:16:25;;;;;;;;;;;;;;;24.40;61.63;99088.28;3492938;27;2059647;-73
2021/07/02 05:18:18;;;;;;;;;;;;;;;24.42;61.56;99094.22;3493309;27;2052818;-74
2021/07/02 05:20:10;;;;;;;;;;;;;;;24.44;61.74;99083.84;3493773;27;2043588;-75
2021/07/02 05:22:06;;;;;;;;;;;;;;;24.46;61.79;99092.56;3481750;27;2382173;-76
2021/07/02 05:23:58;;;;;;;;;;;;;;;24.46;61.75;99092.56;3493069;27;2064785;-78
2021/07/02 05:25:50;;;;;;;;;;;;;;;24.44;61.52;99087.38;3480828;27;2403125;-75
2021/07/02 05:27:42;;;;;;;;;;;;;;;24.41;61.52;99085.25;3481614;27;2059936;-77
2021/07/02 05:29:36;;;;;;;;;;;;;;;24.37;61.78;99087.78;3492432;27;2078378;-73
2021/07/02 05:31:29;;;;;;;;;;;;;;;24.34;61.63;99084.81;3487309;27;2210750;-70
2021/07/02 05:33:21;;;;;;;;;;;;;;;24.31;62.14;99083.50;3489670;27;2164585;-74
2021/07/02 05:35:16;;;;;;;;;;;;;;;24.28;62.10;99084.13;3509032;27;19992;-73
2021/07/02 05:37:08;;;;;;;;;;;;;;;24.25;62.10;99095.63;3487883;27;2052170;-75
2021/07/02 05:38:59;;;;;;;;;;;;;;;24.20;62.08;99094.91;3427521;27;3520022;-75
2021/07/02 05:40:55;;;;;;;;;;;;;;;24.12;62.36;99096.41;3498886;27;2061194;-78
2021/07/02 05:42:48;;;;;;;;;;;;;;;24.07;62.45;99091.03;3493554;27;2047401;-77
2021/07/02 05:44:39;;;;;;;;;;;;;;;24.05;62.43;99090.53;3490606;27;2128833;-77
2021/07/02 05:46:31;;;;;;;;;;;;;;;24.04;62.50;99080.75;3492397;27;2068431;-76
2021/07/02 05:48:24;;;;;;;;;;;;;;;24.04;62.57;99081.56;3494718;27;2063696;-74
2021/07/02 05:50:21;;;;;;;;;;;;;;;24.06;62.50;99084.78;3492664;27;2063123;-75
2021/07/02 05:52:13;;;;;;;;;;;;;;;24.07;62.48;99083.66;3493393;27;2056139;-75
2021/07/02 05:54:05;;;;;;;;;;;;;;;24.07;62.23;99080.94;3476374;27;2527574;-74
2021/07/02 05:55:59;;;;;;;;;;;;;;;24.08;62.12;99087.19;3522691;27;19955;-74
2021/07/02 05:57:52;;;;;;;;;;;;;;;24.06;62.12;99081.22;3481563;27;2052996;-72
2021/07/02 05:59:44;;;;;;;;;;;;;;;24.06;62.13;99086.69;3486809;27;2041951;-71
2021/07/02 06:01:39;;;;;;;;;;;;;;;24.05;62.01;99077.72;3522975;27;20379;-74
2021/07/02 06:03:36;;;;;;;;;;;;;;;24.07;61.99;99080.94;3494804;28;19960;-74
2021/07/02 06:05:29;;;;;;;;;;;;;;;24.08;61.74;99087.19;3493097;27;2068561;-73
2021/07/02 06:07:20;;;;;;;;;;;;;;;24.09;61.61;99081.47;3483099;27;2077286;-74
2021/07/02 06:09:12;;;;;;;;;;;;;;;24.10;61.78;99088.50;3491967;27;2059032;-74
2021/07/02 06:11:05;;;;;;;;;;;;;;;24.10;61.65;99085.00;3492589;27;2086330;-78
2021/07/02 06:12:57;;;;;;;;;;;;;;;24.09;61.71;99081.47;3493264;27;2059187;-76
2021/07/02 06:14:49;;;;;;;;;;;;;;;24.09;61.41;99080.66;3462600;27;2089145;-74
2021/07/02 06:16:43;;;;;;;;;;;;;;;24.08;61.50;99084.47;3508002;27;19962;-74
2021/07/02 06:18:36;;;;;;;;;;;;;;;24.06;61.39;99083.97;3485858;27;2064235;-75
2021/07/02 06:20:29;;;;;;;;;;;;;;;24.04;61.48;99084.28;3488802;27;2063434;-75
2021/07/02 06:22:23;;;;;;;;;;;;;;;24.03;61.45;99082.63;3507797;28;19955;-73
2021/07/02 06:24:18;;;;;;;;;;;;;;;24.02;61.51;99082.94;3509800;27;19955;-74
2021/07/02 06:26:12;;;;;;;;;;;;;;;23.99;61.27;99078.13;3495526;27;2060075;-77
2021/07/02 06:28:05;;;;;;;;;;;;;;;23.96;61.35;99079.50;3480625;27;2180237;-74
2021/07/02 06:29:58;;;;;;;;;;;;;;;23.95;61.42;99077.88;3495620;27;2068434;-73
2021/07/02 06:31:50;;;;;;;;;;;;;;;23.95;61.30;99088.78;3500938;27;2044678;-74
2021/07/02 06:33:41;;;;;;;;;;;;;;;23.94;61.28;99082.53;3509365;27;2038042;-74
2021/07/02 06:35:33;;;;;;;;;;;;;;;23.94;61.50;99082.53;3495257;27;2073794;-73
2021/07/02 06:37:25;;;;;;;;;;;;;;;23.95;61.30;99083.31;3498665;27;2050412;-72
2021/07/02 06:39:23;;;;;;;;;;;;;;;23.94;61.16;99079.81;3494468;28;21068;-74
2021/07/02 06:41:15;;;;;;;;;;;;;;;23.94;61.17;99082.53;3454180;27;2132486;-76
2021/07/02 06:43:10;;;;;;;;;;;;;;;23.94;61.25;99087.97;3447187;27;19976;-73
2021/07/02 06:45:04;;;;;;;;;;;;;;;23.95;61.23;99081.41;3466483;27;2063164;-74
2021/07/02 06:47:00;;;;;;;;;;;;;;;23.95;61.30;99077.88;3444590;27;3018866;-75
2021/07/02 06:48:52;;;;;;;;;;;;;;;23.93;61.06;99080.09;3492240;27;2078928;-74
2021/07/02 06:50:50;;;;;;;;;;;;;;;23.92;61.08;99078.47;3487613;27;2190293;-75
2021/07/02 06:52:46;;;;;;;;;;;;;;;23.93;61.27;99080.09;3522979;27;19967;-75
2021/07/02 06:55:09;;;;;;;;;;;;;;;23.92;61.13;99084.72;3480953;27;2060209;-75
2021/07/02 06:57:09;;;;;;;;;;;;;;;23.92;61.20;99076.56;3531978;27;19950;-75
2021/07/02 06:59:02;;;;;;;;;;;;;;;23.93;60.97;99075.47;3478533;27;2057740;-75
2021/07/02 07:00:57;;;;;;;;;;;;;;;23.93;61.09;99072.75;3507293;27;19959;-75
2021/07/02 07:02:52;;;;;;;;;;;;;;;23.95;61.07;99072.44;3493235;28;19968;-76
2021/07/02 07:04:44;;;;;;;;;;;;;;;23.95;60.95;99078.69;3477640;27;2061108;-76
2021/07/02 07:06:38;;;;;;;;;;;;;;;23.99;60.88;99078.91;3560174;27;19969;-74
2021/07/02 07:08:32;;;;;;;;;;;;;;;24.01;60.97;99073.16;3478181;27;2080374;-74
2021/07/02 07:10:26;;;;;;;;;;;;;;;24.05;60.87;99079.63;3477359;27;2080403;-75
2021/07/02 07:12:21;;;;;;;;;;;;;;;24.07;60.69;99074.69;3465529;27;2083086;-75
2021/07/02 07:14:15;;;;;;;;;;;;;;;24.11;60.81;99072.97;3464595;27;2058603;-72
2021/07/02 07:16:09;;;;;;;;;;;;;;;24.16;60.50;99072.88;3436418;27;3221584;-72
2021/07/02 07:18:05;;;;;;;;;;;;;;;24.20;60.50;99071.19;3513864;27;19963;-77
2021/07/02 07:19:59;;;;;;;;;;;;;;;24.20;60.65;99067.66;3400748;27;3525132;-75
2021/07/02 07:21:52;;;;;;;;;;;;;;;24.19;60.41;99069.59;3412693;27;4004839;-74
2021/07/02 07:23:45;;;;;;;;;;;;;;;24.21;60.66;99069.28;3442983;27;2694492;-74
2021/07/02 07:25:38;;;;;;;;;;;;;;;24.22;60.81;99068.97;3440181;27;3193329;-75
2021/07/02 07:27:32;;;;;;;;;;;;;;;24.27;61.06;99071.63;3446834;27;2722087;-74
2021/07/02 07:29:26;;;;;;;;;;;;;;;24.33;60.89;99062.22;3478237;27;2077606;-74
2021/07/02 07:31:19;;;;;;;;;;;;;;;24.44;60.68;99072.94;3480796;27;2056309;-73
2021/07/02 07:33:13;;;;;;;;;;;;;;;24.55;60.44;99074.38;3454955;27;3087073;-75
2021/07/02 07:35:22;;;;;;;;;;;;;;;24.69;60.30;99074.41;3548529;27;19955;-73
2021/07/02 07:37:26;;;;;;;;;;;;;;;24.81;59.97;99064.59;3448206;27;2855624;-74
2021/07/02 07:39:22;;;;;;;;;;;;;;;24.94;59.98;99065.69;3469837;27;2422176;-74
2021/07/02 07:41:18;;;;;;;;;;;;;;;25.01;60.09;99068.00;3480782;27;2135595;-74
2021/07/02 07:43:12;;;;;;;;;;;;;;;25.09;60.25;99067.28;3475765;27;2198069;-73
2021/07/02 07:45:06;;;;;;;;;;;;;;;25.13;59.98;99065.56;3491386;27;2055099;-74
2021/07/02 07:47:00;;;;;;;;;;;;;;;25.16;60.11;99064.97;3504357;27;19967;-76
2021/07/02 07:48:53;;;;;;;;;;;;;;;25.27;60.01;99065.56;3469760;27;2335301;-75
2021/07/02 07:50:50;;;;;;;;;;;;;;;25.35;59.80;99069.47;3475863;27;2116946;-75
2021/07/02 07:53:12;;;;;;;;;;;;;;;25.38;59.36;99069.69;3474221;27;2208494;-74
2021/07/02 07:55:04;;;;;;;;;;;;;;;25.40;59.66;99063.91;3442911;27;3130144;-75
2021/07/02 07:56:57;;;;;;;;;;;;;;;25.40;59.17;99072.09;3477885;27;2077328;-73
2021/07/02 07:58:49;;;;;;;;;;;;;;;25.40;59.47;99072.91;3477413;27;2084072;-73
2021/07/02 08:00:45;;;;;;;;;;;;;;;25.43;59.28;99071.50;3504917;28;20335;-73
2021/07/02 08:02:39;;;;;;;;;;;;;;;25.45;59.31;99064.59;3491265;27;2082695;-72
2021/07/02 08:04:34;;;;;;;;;;;;;;;25.48;59.12;99073.28;3522075;27;19956;-72
2021/07/02 08:06:26;;;;;;;;;;;;;;;25.49;59.34;99072.97;3469629;27;2655368;-73
2021/07/02 08:08:20;;;;;;;;;;;;;;;25.50;59.54;99063.66;3508258;27;19962;-77
2021/07/02 08:10:14;;;;;;;;;;;;;;;25.49;59.19;99064.78;3491185;27;2086037;-72
2021/07/02 08:12:08;;;;;;;;;;;;;;;25.46;59.48;99076.31;3508231;27;19967;-72
2021/07/02 08:14:01;;;;;;;;;;;;;;;25.40;59.57;99070.19;3490027;27;2094902;-73
2021/07/02 08:15:56;;;;;;;;;;;;;;;25.33;59.03;99069.00;3508595;27;20367;-73
2021/07/02 08:17:50;;;;;;;;;;;;;;;25.27;59.38;99072.94;3486644;27;2104688;-73
2021/07/02 08:19:43;;;;;;;;;;;;;;;25.20;58.99;99068.72;3492868;27;2069467;-73
2021/07/02 08:21:37;;;;;;;;;;;;;;;25.15;58.94;99074.25;3522926;27;19956;-72
2021/07/02 08:23:30;;;;;;;;;;;;;;;25.10;58.97;99071.63;3492256;27;2073748;-73
2021/07/02 08:25:22;;;;;;;;;;;;;;;25.07;59.28;99080.44;3491331;27;2097371;-72
2021/07/02 08:27:06;;;;;;;;;;;;;;;25.05;59.13;99071.75;3550111;27;19923;-71
2021/07/02 08:31:12;;;;;;;;;;;;;;;24.98;59.21;99071.34;3522593;27;19952;-73
2021/07/02 08:33:07;;;;;;;;;;;;;;;24.99;59.13;99067.53;3494591;28;19963;-72
2021/07/02 08:35:01;;;;;;;;;;;;;;;25.03;59.03;99060.31;3492181;27;2072582;-72
2021/07/02 08:36:53;;;;;;;;;;;;;;;25.10;59.01;99062.66;3491919;27;2071706;-73
2021/07/02 08:38:45;;;;;;;;;;;;;;;25.16;58.95;99062.25;3481311;27;2054219;-72
2021/07/02 08:40:41;;;;;;;;;;;;;;;25.28;58.81;99058.19;3522847;27;19960;-73
2021/07/02 08:42:37;;;;;;;;;;;;;;;25.42;58.47;99057.00;3522447;27;19962;-72
2021/07/02 08:44:29;;;;;;;;;;;;;;;25.56;58.16;99056.19;3490901;27;2117880;-71
2021/07/02 08:46:53;;;;;;;;;;;;;;;25.73;57.76;99063.69;3494648;28;20309;-72
2021/07/02 08:48:48;;;;;;;;;;;;;;;25.89;57.46;99067.66;3536754;27;19963;-71
2021/07/02 08:50:42;;;;;;;;;;;;;;;26.05;57.15;99062.66;3494629;28;19960;-73
2021/07/02 08:52:37;;;;;;;;;;;;;;;26.23;56.74;99058.06;3522844;27;19952;-72
2021/07/02 08:54:30;;;;;;;;;;;;;;;26.38;56.61;99057.66;3493308;27;2057034;-73
2021/07/02 08:56:22;;;;;;;;;;;;;;;26.49;56.40;99053.53;3491610;27;2095031;-73
2021/07/02 08:58:17;;;;;;;;;;;;;;;26.56;56.18;99063.22;3508545;27;19958;-73
2021/07/02 09:00:14;;;;;;;;;;;;;;;26.62;56.00;99062.78;3479258;27;2039319;-72
2021/07/02 09:02:07;;;;;;;;;;;;;;;26.69;55.94;99059.56;3492993;27;2054120;-73
2021/07/02 09:04:16;;;;;;;;;;;;;;;26.72;55.83;99064.41;3492456;27;2067115;-73
2021/07/02 09:06:08;;;;;;;;;;;;;;;26.71;55.63;99058.13;3493149;27;2048909;-73
2021/07/02 09:08:16;;;;;;;;;;;;;;;26.75;55.28;99061.84;3487435;27;2071768;-72
2021/07/02 09:10:08;;;;;;;;;;;;;;;26.84;55.34;99059.13;3492946;27;2057491;-72
2021/07/02 09:12:07;;;;;;;;;;;;;;;27.00;54.82;99066.88;3492832;27;2066288;-73
2021/07/02 09:14:03;;;;;;;;;;;;;;;27.16;55.00;99065.31;3494622;28;19959;-71
2021/07/02 09:15:56;;;;;;;;;;;;;;;27.27;54.14;99066.63;3478889;27;2077040;-72
2021/07/02 09:17:50;;;;;;;;;;;;;;;27.40;54.17;99062.94;3487950;27;2102182;-71
2021/07/02 09:19:42;;;;;;;;;;;;;;;27.51;53.65;99057.94;3490926;27;2114692;-73
2021/07/02 09:21:34;;;;;;;;;;;;;;;27.59;53.25;99067.28;3492849;27;2061060;-73
2021/07/02 09:23:26;;;;;;;;;;;;;;;27.61;52.83;99054.88;3492288;27;2069691;-72
2021/07/02 09:25:21;;;;;;;;;;;;;;;27.72;53.00;99065.50;3522426;27;19963;-73
2021/07/02 09:27:25;;;;;;;;;;;;;;;27.95;52.88;99064.19;3492481;27;2064196;-73
2021/07/02 09:29:21;;;;;;;;;;;;;;;28.19;52.45;99058.19;3492360;27;2069573;-73
2021/07/02 09:31:12;;;;;;;;;;;;;;;28.39;51.94;99058.59;3491345;27;2101801;-72
2021/07/02 09:33:05;;;;;;;;;;;;;;;28.58;51.54;99063.69;3492417;27;2073712;-72
2021/07/02 09:34:59;;;;;;;;;;;;;;;28.79;51.21;99064.56;3492183;27;2072631;-72
2021/07/02 09:36:51;;;;;;;;;;;;;;;29.04;50.40;99059.25;3460203;27;2169644;-73
2021/07/02 09:38:48;;;;;;;;;;;;;;;29.28;50.54;99062.19;3522449;27;19956;-72
2021/07/02 09:40:47;;;;;;;;;;;;;;;29.47;49.72;99061.69;3508333;27;20005;-72
2021/07/02 09:42:39;;;;;;;;;;;;;;;29.50;49.87;99066.53;3493004;27;2048389;-72
2021/07/02 09:44:33;;;;;;;;;;;;;;;29.39;49.55;99061.78;3522502;27;20043;-75
2021/07/02 09:46:29;;;;;;;;;;;;;;;29.22;49.19;99059.97;3492244;27;2072908;-73
2021/07/02 09:48:10;;;;;;;;;;;;;;;29.07;49.87;99059.44;3559871;27;20313;-73